Terminal Aerodrome Forecast
Issued by NWS

Home | Current Version | Previous Version | Text Only | Print | Product List | Glossary On
Versions: 1 2 3 4 5 6 7 8 9 10 11 12 13 14 15 16 17 18 19 20 21 22 23
000
FTUS46 KOTX 092321
TAFPUW
TAF
KPUW 092321Z 1000/1024 12005KT 4SM -SN BR BKN009 OVC015
     FM100300 11007KT 2SM -SNGR OVC007
     FM101000 15007KT 1SM -SN OVC005
     FM101600 23006KT 5SM BR BKN015 OVC025
     FM101800 25009G15KT 6SM BR VCSH BKN007 OVC015=

USA.gov is the U.S. government's official web portal to all federal, state and local government web resources and services.